Big Bear Station Historical Data
Daily Summary for April 23, 2019 Units:  English    Metric   Both
Next Day »
Daily Weekly Monthly Yearly Custom
  High: Low: Average:
Temperature: 68.0 °F 39.7 °F 51.5 °F
Dew Point: 38.4 °F 30.0 °F 35.1 °F
Humidity: 78% 29% 56%
Wind Speed: 8.3mph 0.0mph 2.5mph
Wind Gust: -999.0mph - -
Wind- - WSW
Pressure: 23.57 in 23.50 in -
Precipitation: 0.00 in    
Historical Graphs
 
 
Tabular Data for April 23, 2019
Time Temperature Dew Point Pressure Wind Wind Speed Wind Gust Humidity Rainfall Rate (Hourly)
00:04 43.7 °F 36.0 °F 23.51 in Calm   -999.0 mph 74% 0.00 in
00:19 45.3 °F 36.8 °F 23.51 in SSW 1.1 mph -999.0 mph 72% 0.00 in
00:34 45.1 °F 36.3 °F 23.51 in South 2.2 mph -999.0 mph 71% 0.00 in
00:50 45.7 °F 35.7 °F 23.51 in NNW 1.7 mph -999.0 mph 68% 0.00 in
01:05 45.7 °F 35.7 °F 23.51 in Calm   -999.0 mph 68% 0.00 in
01:20 44.6 °F 35.4 °F 23.51 in South 3.7 mph -999.0 mph 70% 0.00 in
01:36 44.6 °F 35.1 °F 23.51 in Calm   -999.0 mph 69% 0.00 in
01:51 45.0 °F 35.1 °F 23.51 in Calm   -999.0 mph 68% 0.00 in
02:06 44.8 °F 35.2 °F 23.51 in Calm   -999.0 mph 69% 0.00 in
02:21 44.2 °F 34.7 °F 23.50 in Calm   -999.0 mph 69% 0.00 in
02:37 44.1 °F 35.3 °F 23.50 in Calm   -999.0 mph 71% 0.00 in
02:52 43.5 °F 35.1 °F 23.50 in SE 3.2 mph -999.0 mph 72% 0.00 in
03:07 43.7 °F 35.6 °F 23.50 in Calm   -999.0 mph 73% 0.00 in
03:22 43.0 °F 35.6 °F 23.50 in SSE 1.1 mph -999.0 mph 75% 0.00 in
03:37 42.6 °F 35.6 °F 23.51 in Calm   -999.0 mph 76% 0.00 in
03:53 43.2 °F 35.1 °F 23.50 in Calm   -999.0 mph 73% 0.00 in
04:08 43.2 °F 35.1 °F 23.51 in Calm   -999.0 mph 73% 0.00 in
04:23 43.2 °F 35.1 °F 23.51 in Calm   -999.0 mph 73% 0.00 in
04:39 43.3 °F 35.6 °F 23.50 in ESE 2.2 mph -999.0 mph 74% 0.00 in
04:54 43.2 °F 35.5 °F 23.50 in ENE 1.1 mph -999.0 mph 74% 0.00 in
05:09 43.2 °F 36.1 °F 23.51 in Calm   -999.0 mph 76% 0.00 in
05:24 42.6 °F 36.2 °F 23.51 in South 5.3 mph -999.0 mph 78% 0.00 in
05:39 42.6 °F 35.9 °F 23.51 in WSW 2.7 mph -999.0 mph 77% 0.00 in
05:55 42.3 °F 35.6 °F 23.51 in SSE 2.2 mph -999.0 mph 77% 0.00 in
06:10 42.1 °F 35.4 °F 23.51 in SW 4.2 mph -999.0 mph 77% 0.00 in
06:25 42.3 °F 35.6 °F 23.52 in NNE 3.7 mph -999.0 mph 77% 0.00 in
06:40 43.0 °F 35.6 °F 23.53 in NNW 1.1 mph -999.0 mph 75% 0.00 in
06:56 43.2 °F 35.8 °F 23.53 in NNW 2.7 mph -999.0 mph 75% 0.00 in
07:11 44.6 °F 36.5 °F 23.52 in East 3.7 mph -999.0 mph 73% 0.00 in
07:27 45.7 °F 36.5 °F 23.53 in West 8.3 mph -999.0 mph 70% 0.00 in
07:42 46.2 °F 37.0 °F 23.53 in NNW 4.7 mph -999.0 mph 70% 0.00 in
07:58 46.6 °F 37.0 °F 23.53 in WNW 6.8 mph -999.0 mph 69% 0.00 in
08:13 47.1 °F 37.5 °F 23.54 in NNW 4.7 mph -999.0 mph 69% 0.00 in
08:28 47.3 °F 36.5 °F 23.54 in NW 2.2 mph -999.0 mph 66% 0.00 in
08:43 48.0 °F 36.4 °F 23.54 in WSW 1.1 mph -999.0 mph 64% 0.00 in
08:58 48.7 °F 36.3 °F 23.55 in NNW 2.7 mph -999.0 mph 62% 0.00 in
09:14 50.2 °F 36.8 °F 23.55 in NNE 2.2 mph -999.0 mph 60% 0.00 in
09:29 50.4 °F 36.6 °F 23.55 in Calm   -999.0 mph 59% 0.00 in
09:44 50.5 °F 36.7 °F 23.55 in NNE 2.2 mph -999.0 mph 59% 0.00 in
09:59 51.3 °F 36.6 °F 23.56 in NNW 4.2 mph -999.0 mph 57% 0.00 in
10:14 51.3 °F 36.6 °F 23.56 in NW 7.3 mph -999.0 mph 57% 0.00 in
10:30 52.2 °F 36.1 °F 23.56 in West 2.2 mph -999.0 mph 54% 0.00 in
10:45 53.6 °F 36.9 °F 23.56 in WSW 3.2 mph -999.0 mph 53% 0.00 in
11:00 55.0 °F 37.7 °F 23.56 in NE 6.3 mph -999.0 mph 52% 0.00 in
11:16 55.6 °F 37.2 °F 23.56 in NW 6.3 mph -999.0 mph 50% 0.00 in
11:31 57.2 °F 38.2 °F 23.56 in NW 5.3 mph -999.0 mph 49% 0.00 in
11:46 58.1 °F 38.0 °F 23.56 in NW 5.8 mph -999.0 mph 47% 0.00 in
12:01 58.6 °F 38.4 °F 23.55 in NNW 8.3 mph -999.0 mph 47% 0.00 in
12:17 58.5 °F 37.2 °F 23.55 in NNW 5.8 mph -999.0 mph 45% 0.00 in
12:32 60.3 °F 38.3 °F 23.55 in NNE 4.2 mph -999.0 mph 44% 0.00 in
12:47 61.2 °F 37.9 °F 23.55 in NNE 5.3 mph -999.0 mph 42% 0.00 in
13:02 61.0 °F 38.3 °F 23.55 in NNW 4.7 mph -999.0 mph 43% 0.00 in
13:18 62.1 °F 36.2 °F 23.55 in NW 6.8 mph -999.0 mph 38% 0.00 in
13:33 63.1 °F 36.4 °F 23.54 in North 5.8 mph -999.0 mph 37% 0.00 in
13:48 64.6 °F 37.0 °F 23.54 in WNW 6.3 mph -999.0 mph 36% 0.00 in
14:04 64.8 °F 37.2 °F 23.54 in East 2.2 mph -999.0 mph 36% 0.00 in
14:19 65.3 °F 36.9 °F 23.54 in NE 4.2 mph -999.0 mph 35% 0.00 in
14:34 64.0 °F 35.8 °F 23.54 in NNW 5.3 mph -999.0 mph 35% 0.00 in
14:49 64.4 °F 36.1 °F 23.54 in NNW 5.3 mph -999.0 mph 35% 0.00 in
15:05 64.9 °F 35.9 °F 23.53 in South 3.7 mph -999.0 mph 34% 0.00 in
15:21 63.9 °F 37.1 °F 23.54 in NNW 6.8 mph -999.0 mph 37% 0.00 in
15:36 63.7 °F 34.8 °F 23.53 in North 4.2 mph -999.0 mph 34% 0.00 in
15:51 64.6 °F 34.8 °F 23.53 in NNW 6.8 mph -999.0 mph 33% 0.00 in
16:06 64.0 °F 33.5 °F 23.53 in Calm   -999.0 mph 32% 0.00 in
16:22 64.9 °F 35.1 °F 23.53 in NW 4.2 mph -999.0 mph 33% 0.00 in
16:37 64.0 °F 35.1 °F 23.52 in NNE 2.2 mph -999.0 mph 34% 0.00 in
16:52 66.7 °F 35.9 °F 23.52 in North 4.2 mph -999.0 mph 32% 0.00 in
17:08 68.0 °F 35.4 °F 23.53 in Calm   -999.0 mph 30% 0.00 in
17:23 67.3 °F 36.4 °F 23.53 in North 5.3 mph -999.0 mph 32% 0.00 in
17:38 66.7 °F 34.3 °F 23.53 in NNW 3.2 mph -999.0 mph 30% 0.00 in
17:54 66.9 °F 33.6 °F 23.53 in NW 4.2 mph -999.0 mph 29% 0.00 in
18:09 66.2 °F 33.0 °F 23.52 in ENE 1.7 mph -999.0 mph 29% 0.00 in
18:25 64.0 °F 32.8 °F 23.52 in NW 4.2 mph -999.0 mph 31% 0.00 in
18:40 59.9 °F 34.2 °F 23.52 in NNW 4.2 mph -999.0 mph 38% 0.00 in
18:55 58.6 °F 33.7 °F 23.52 in Calm   -999.0 mph 39% 0.00 in
19:10 57.2 °F 33.1 °F 23.52 in Calm   -999.0 mph 40% 0.00 in
19:25 55.4 °F 35.5 °F 23.52 in Calm   -999.0 mph 47% 0.00 in
19:41 52.5 °F 33.9 °F 23.53 in Calm   -999.0 mph 49% 0.00 in
19:56 51.4 °F 32.9 °F 23.53 in Calm   -999.0 mph 49% 0.00 in
20:11 50.5 °F 33.5 °F 23.54 in Calm   -999.0 mph 52% 0.00 in
20:26 49.5 °F 32.1 °F 23.54 in Calm   -999.0 mph 51% 0.00 in
20:41 48.4 °F 31.1 °F 23.55 in Calm   -999.0 mph 51% 0.00 in
20:57 47.3 °F 31.5 °F 23.55 in Calm   -999.0 mph 54% 0.00 in
21:12 46.2 °F 32.2 °F 23.55 in Calm   -999.0 mph 58% 0.00 in
21:27 45.3 °F 32.2 °F 23.55 in Calm   -999.0 mph 60% 0.00 in
21:42 44.8 °F 33.0 °F 23.56 in Calm   -999.0 mph 63% 0.00 in
21:57 44.1 °F 32.3 °F 23.56 in Calm   -999.0 mph 63% 0.00 in
22:13 43.2 °F 30.7 °F 23.56 in Calm   -999.0 mph 61% 0.00 in
22:28 42.6 °F 30.5 °F 23.56 in Calm   -999.0 mph 62% 0.00 in
22:43 42.1 °F 30.8 °F 23.56 in Calm   -999.0 mph 64% 0.00 in
22:58 41.4 °F 30.5 °F 23.57 in Calm   -999.0 mph 65% 0.00 in
23:14 40.8 °F 30.3 °F 23.57 in Calm   -999.0 mph 66% 0.00 in
23:29 40.5 °F 30.8 °F 23.57 in Calm   -999.0 mph 68% 0.00 in
23:44 40.1 °F 30.0 °F 23.57 in Calm   -999.0 mph 67% 0.00 in
23:59 39.7 °F 31.1 °F 23.57 in Calm   -999.0 mph 71% 0.00 in
Big Bear CA Weather